Time;durP1;ratioP1;P1;durP2;ratioP2;P2;SDS_P1;SDS_P2;PMS_P1;PMS_P2;Temp;Humidity;BMP_temperature;BMP_pressure;BME280_temperature;BME280_humidity;BME280_pressure;Samples;Min_cycle;Max_cycle;Signal;HPM_P1;HPM_P2
2022/08/22 00:02:10;;;;;;;2.90;2.60;;;;;;;;;;5073215;28;20221;-82
2022/08/22 00:04:41;;;;;;;3.63;2.93;;;;;;;;;;5073409;28;20189;-82
2022/08/22 00:07:22;;;;;;;5.90;3.07;;;;;;;;;;5073749;28;20308;-83
2022/08/22 00:09:53;;;;;;;3.40;3.10;;;;;;;;;;5072954;28;20189;-83
2022/08/22 00:12:24;;;;;;;4.90;3.10;;;;;;;;;;5073265;28;20290;-83
2022/08/22 00:14:53;;;;;;;4.73;3.10;;;;;;;;;;5053933;28;20313;-83
2022/08/22 00:17:30;;;;;;;4.50;3.20;;;;;;;;;;5053669;28;20287;-85
2022/08/22 00:20:02;;;;;;;7.23;3.27;;;;;;;;;;5052849;28;20229;-83
2022/08/22 00:22:34;;;;;;;4.33;3.07;;;;;;;;;;5053078;28;20305;-83
2022/08/22 00:25:07;;;;;;;3.60;2.93;;;;;;;;;;5069185;28;20233;-83
2022/08/22 00:27:38;;;;;;;5.53;3.40;;;;;;;;;;5073732;28;20206;-85
2022/08/22 00:30:08;;;;;;;3.57;3.20;;;;;;;;;;5073149;28;20239;-83
2022/08/22 00:32:39;;;;;;;5.00;3.30;;;;;;;;;;5073380;28;20308;-82
2022/08/22 00:35:11;;;;;;;3.60;3.17;;;;;;;;;;5076307;28;20230;-84
2022/08/22 00:37:41;;;;;;;4.80;3.40;;;;;;;;;;5060000;28;20605;-84
2022/08/22 00:40:16;;;;;;;4.33;3.30;;;;;;;;;;5054037;28;20233;-83
2022/08/22 00:42:51;;;;;;;5.60;3.60;;;;;;;;;;5064463;28;20240;-83
2022/08/22 00:45:42;;;;;;;6.43;3.60;;;;;;;;;;5073473;28;20229;-84
2022/08/22 00:48:22;;;;;;;4.50;3.63;;;;;;;;;;5073235;28;20278;-83
2022/08/22 00:50:58;;;;;;;4.60;3.53;;;;;;;;;;5072607;28;20229;-83
2022/08/22 00:53:31;;;;;;;4.57;3.13;;;;;;;;;;5073415;28;20653;-83
2022/08/22 00:56:03;;;;;;;5.50;3.50;;;;;;;;;;5072995;28;20748;-83
2022/08/22 00:58:41;;;;;;;6.80;3.37;;;;;;;;;;5073348;28;20208;-83
2022/08/22 01:01:09;;;;;;;4.30;3.23;;;;;;;;;;5071213;28;20743;-83
2022/08/22 01:03:51;;;;;;;5.53;3.40;;;;;;;;;;5073347;28;20209;-83
2022/08/22 01:06:26;;;;;;;5.57;3.17;;;;;;;;;;5071403;28;20237;-84
2022/08/22 01:09:05;;;;;;;5.13;3.70;;;;;;;;;;5075909;28;20200;-83
2022/08/22 01:11:52;;;;;;;5.67;3.17;;;;;;;;;;5076143;28;20241;-83
2022/08/22 01:14:29;;;;;;;5.13;3.10;;;;;;;;;;5076925;28;20284;-83
2022/08/22 01:17:03;;;;;;;4.20;3.20;;;;;;;;;;5076585;28;20201;-83
2022/08/22 01:19:43;;;;;;;4.10;3.70;;;;;;;;;;5075813;28;20202;-83
2022/08/22 01:22:26;;;;;;;4.60;3.67;;;;;;;;;;5076671;28;20600;-83
2022/08/22 01:25:19;;;;;;;6.57;3.23;;;;;;;;;;5076129;28;20251;-83
2022/08/22 01:27:59;;;;;;;5.90;3.60;;;;;;;;;;5076505;28;20209;-84
2022/08/22 01:30:40;;;;;;;5.37;3.67;;;;;;;;;;5075233;28;20228;-83
2022/08/22 01:33:25;;;;;;;3.97;3.57;;;;;;;;;;5076185;28;20228;-83
2022/08/22 01:36:07;;;;;;;4.47;3.30;;;;;;;;;;5064844;28;20240;-83
2022/08/22 01:38:44;;;;;;;3.73;3.43;;;;;;;;;;5076256;28;20201;-83
2022/08/22 01:41:26;;;;;;;3.57;3.27;;;;;;;;;;5075692;28;20232;-83
2022/08/22 01:44:03;;;;;;;5.77;3.67;;;;;;;;;;5076227;28;20621;-83
2022/08/22 01:46:35;;;;;;;4.77;3.97;;;;;;;;;;5075985;28;20228;-83
2022/08/22 01:49:05;;;;;;;6.93;3.63;;;;;;;;;;5076876;28;20206;-83
2022/08/22 01:51:39;;;;;;;4.93;3.30;;;;;;;;;;5076000;28;20237;-84
2022/08/22 01:54:10;;;;;;;6.33;4.03;;;;;;;;;;5076389;28;20182;-83
2022/08/22 01:56:40;;;;;;;7.00;3.57;;;;;;;;;;5077272;28;20255;-84
2022/08/22 01:59:09;;;;;;;5.70;3.80;;;;;;;;;;5082250;28;20211;-83
2022/08/22 02:01:47;;;;;;;4.20;3.53;;;;;;;;;;5075351;28;20237;-83
2022/08/22 02:04:16;;;;;;;4.87;3.70;;;;;;;;;;5076188;28;20673;-83
2022/08/22 02:06:46;;;;;;;6.90;3.50;;;;;;;;;;5075601;28;20656;-83
2022/08/22 02:09:20;;;;;;;6.00;3.60;;;;;;;;;;5075760;28;20200;-83
2022/08/22 02:11:51;;;;;;;7.63;3.80;;;;;;;;;;5075208;28;20236;-83
2022/08/22 02:14:23;;;;;;;3.80;3.40;;;;;;;;;;5076140;28;20190;-83
2022/08/22 02:16:54;;;;;;;4.47;3.50;;;;;;;;;;5075367;28;20578;-83
2022/08/22 02:19:26;;;;;;;3.73;3.33;;;;;;;;;;5075129;28;20193;-83
2022/08/22 02:21:56;;;;;;;5.70;3.60;;;;;;;;;;5075245;28;20274;-84
2022/08/22 02:24:28;;;;;;;5.40;3.37;;;;;;;;;;5075673;28;20209;-83
2022/08/22 02:27:05;;;;;;;5.47;3.40;;;;;;;;;;5075206;28;20309;-83
2022/08/22 02:29:36;;;;;;;5.43;3.43;;;;;;;;;;5075107;28;20200;-84
2022/08/22 02:32:05;;;;;;;6.40;3.90;;;;;;;;;;5075073;28;20225;-84
2022/08/22 02:34:36;;;;;;;8.73;3.77;;;;;;;;;;5075283;28;20206;-83
2022/08/22 02:37:06;;;;;;;4.00;3.60;;;;;;;;;;5075341;28;20715;-83
2022/08/22 02:39:37;;;;;;;4.80;3.50;;;;;;;;;;5075269;28;20206;-83
2022/08/22 02:42:11;;;;;;;4.70;3.53;;;;;;;;;;5076171;28;20291;-83
2022/08/22 02:44:40;;;;;;;4.30;3.67;;;;;;;;;;5089791;28;20201;-83
2022/08/22 02:47:10;;;;;;;4.23;3.80;;;;;;;;;;5077102;28;20244;-83
2022/08/22 02:49:41;;;;;;;5.30;3.40;;;;;;;;;;5076327;28;20209;-83
2022/08/22 02:52:10;;;;;;;4.80;3.70;;;;;;;;;;5059187;28;20225;-83
2022/08/22 02:54:43;;;;;;;7.50;4.10;;;;;;;;;;5075074;28;20194;-84
2022/08/22 02:57:12;;;;;;;6.33;3.93;;;;;;;;;;5075667;28;20185;-83
2022/08/22 02:59:40;;;;;;;5.37;3.80;;;;;;;;;;5074894;28;20206;-83
2022/08/22 03:02:23;;;;;;;4.93;3.70;;;;;;;;;;5075290;28;20677;-83
2022/08/22 03:04:52;;;;;;;4.13;3.37;;;;;;;;;;5074803;28;20648;-84
2022/08/22 03:07:30;;;;;;;3.47;3.17;;;;;;;;;;5075041;28;20256;-83
2022/08/22 03:10:01;;;;;;;4.30;3.90;;;;;;;;;;5074385;28;20648;-83
2022/08/22 03:12:31;;;;;;;5.10;3.87;;;;;;;;;;5074430;28;20222;-83
2022/08/22 03:15:02;;;;;;;4.37;3.77;;;;;;;;;;5074220;28;20248;-83
2022/08/22 03:17:30;;;;;;;4.33;3.73;;;;;;;;;;5075124;28;20198;-83
2022/08/22 03:20:00;;;;;;;6.50;3.67;;;;;;;;;;5073940;28;20677;-83
2022/08/22 03:22:31;;;;;;;4.50;3.70;;;;;;;;;;5074880;28;20252;-84
2022/08/22 03:25:06;;;;;;;5.40;3.90;;;;;;;;;;5074630;28;20237;-84
2022/08/22 03:27:35;;;;;;;7.30;4.00;;;;;;;;;;5076073;28;20213;-84
2022/08/22 03:30:04;;;;;;;4.40;3.87;;;;;;;;;;5074427;28;20237;-84
2022/08/22 03:32:46;;;;;;;5.20;4.00;;;;;;;;;;5092213;28;20228;-84
2022/08/22 03:35:23;;;;;;;5.80;3.67;;;;;;;;;;5085865;28;20244;-84
2022/08/22 03:37:51;;;;;;;4.30;3.77;;;;;;;;;;5075236;28;20208;-84
2022/08/22 03:40:25;;;;;;;4.53;3.80;;;;;;;;;;5074194;28;20233;-84
2022/08/22 03:43:13;;;;;;;7.27;4.27;;;;;;;;;;5077494;28;20232;-84
2022/08/22 03:46:04;;;;;;;4.60;3.90;;;;;;;;;;5093782;28;20235;-84
2022/08/22 03:48:46;;;;;;;6.63;3.77;;;;;;;;;;5095089;28;20677;-85
2022/08/22 03:51:27;;;;;;;5.10;3.60;;;;;;;;;;5094803;28;20234;-85
2022/08/22 03:54:08;;;;;;;5.10;3.67;;;;;;;;;;5094985;28;20612;-85
2022/08/22 03:57:08;;;;;;;6.40;3.93;;;;;;;;;;5093913;28;20239;-84
2022/08/22 03:59:48;;;;;;;4.97;4.20;;;;;;;;;;5093863;28;20200;-85
2022/08/22 04:02:36;;;;;;;11.13;3.80;;;;;;;;;;5081216;28;20232;-84
2022/08/22 04:05:18;;;;;;;6.07;3.87;;;;;;;;;;5071144;28;20321;-83
2022/08/22 04:07:50;;;;;;;6.63;4.53;;;;;;;;;;5095464;28;20224;-83
2022/08/22 04:10:29;;;;;;;5.03;4.17;;;;;;;;;;5092892;28;20236;-82
2022/08/22 04:13:11;;;;;;;9.17;4.67;;;;;;;;;;5081945;28;20212;-83
2022/08/22 04:15:49;;;;;;;5.47;4.00;;;;;;;;;;5096771;28;20236;-83
2022/08/22 04:18:35;;;;;;;5.63;3.90;;;;;;;;;;5095279;28;20184;-83
2022/08/22 04:21:26;;;;;;;7.63;4.30;;;;;;;;;;5093933;28;20232;-82
2022/08/22 04:24:02;;;;;;;6.20;4.43;;;;;;;;;;5089228;28;20212;-83
2022/08/22 04:26:33;;;;;;;6.30;4.00;;;;;;;;;;5096940;28;20696;-83
2022/08/22 04:29:06;;;;;;;8.60;4.10;;;;;;;;;;5112034;28;20189;-83
2022/08/22 04:31:37;;;;;;;5.47;3.83;;;;;;;;;;5111818;28;20247;-83
2022/08/22 04:34:06;;;;;;;7.73;4.37;;;;;;;;;;5112414;28;20680;-85
2022/08/22 04:36:36;;;;;;;4.77;4.00;;;;;;;;;;5093512;28;20240;-84
2022/08/22 04:39:05;;;;;;;9.63;4.40;;;;;;;;;;5093689;28;20201;-84
2022/08/22 04:41:36;;;;;;;5.60;4.43;;;;;;;;;;5092575;28;20240;-84
2022/08/22 04:44:06;;;;;;;6.73;4.17;;;;;;;;;;5094430;28;20203;-83
2022/08/22 04:46:37;;;;;;;5.17;3.83;;;;;;;;;;5081050;28;20229;-83
2022/08/22 04:49:05;;;;;;;6.73;4.03;;;;;;;;;;5074597;28;20204;-83
2022/08/22 04:51:35;;;;;;;6.93;4.17;;;;;;;;;;5073343;28;20248;-83
2022/08/22 04:54:07;;;;;;;5.93;4.40;;;;;;;;;;5074925;28;20205;-83
2022/08/22 04:56:39;;;;;;;6.47;4.27;;;;;;;;;;5073758;28;20601;-84
2022/08/22 04:59:11;;;;;;;7.33;4.40;;;;;;;;;;5075342;28;20189;-82
2022/08/22 05:01:42;;;;;;;7.40;4.63;;;;;;;;;;5080145;28;20233;-81
2022/08/22 05:04:10;;;;;;;6.97;4.73;;;;;;;;;;5080786;28;20189;-81
2022/08/22 05:06:40;;;;;;;5.67;4.27;;;;;;;;;;5079265;28;20263;-81
2022/08/22 05:09:11;;;;;;;5.43;4.50;;;;;;;;;;5080138;28;20201;-81
2022/08/22 05:11:38;;;;;;;5.77;4.57;;;;;;;;;;5079832;28;20658;-81
2022/08/22 05:14:07;;;;;;;10.73;4.97;;;;;;;;;;5080518;28;20213;-82
2022/08/22 05:16:39;;;;;;;6.30;4.60;;;;;;;;;;5080524;28;20247;-82
2022/08/22 05:19:09;;;;;;;9.53;5.00;;;;;;;;;;5080248;28;20218;-82
2022/08/22 05:21:37;;;;;;;7.57;5.00;;;;;;;;;;5079639;28;20241;-81
2022/08/22 05:24:05;;;;;;;6.30;4.83;;;;;;;;;;5080423;28;20235;-82
2022/08/22 05:26:37;;;;;;;7.50;5.37;;;;;;;;;;5079815;28;20233;-81
2022/08/22 05:29:07;;;;;;;6.60;5.47;;;;;;;;;;5079647;28;20210;-80
2022/08/22 05:31:38;;;;;;;11.37;5.70;;;;;;;;;;5079239;28;20263;-81
2022/08/22 05:34:07;;;;;;;6.10;4.80;;;;;;;;;;5079434;28;20248;-82
2022/08/22 05:36:37;;;;;;;7.43;5.33;;;;;;;;;;5079563;28;20233;-81
2022/08/22 05:39:07;;;;;;;11.63;5.87;;;;;;;;;;5080791;28;20197;-82
2022/08/22 05:41:37;;;;;;;9.17;5.87;;;;;;;;;;5080107;28;20248;-81
2022/08/22 05:44:04;;;;;;;7.57;5.97;;;;;;;;;;5080821;28;20604;-81
2022/08/22 05:46:40;;;;;;;10.83;6.80;;;;;;;;;;5080390;28;20710;-82
2022/08/22 05:49:14;;;;;;;8.87;6.03;;;;;;;;;;5080535;28;20217;-80
2022/08/22 05:51:45;;;;;;;7.40;6.20;;;;;;;;;;5078244;28;20240;-82
2022/08/22 05:54:16;;;;;;;8.87;6.33;;;;;;;;;;5081780;28;20217;-82
2022/08/22 05:56:44;;;;;;;8.07;6.47;;;;;;;;;;5082954;28;20241;-82
2022/08/22 05:59:21;;;;;;;6.73;6.13;;;;;;;;;;5081323;28;20206;-82
2022/08/22 06:01:54;;;;;;;8.00;6.20;;;;;;;;;;5081554;28;20708;-82
2022/08/22 06:04:26;;;;;;;9.53;6.60;;;;;;;;;;5083498;28;20209;-81
2022/08/22 06:06:56;;;;;;;8.23;6.33;;;;;;;;;;5062210;28;20226;-82
2022/08/22 06:09:27;;;;;;;8.70;6.40;;;;;;;;;;5062333;28;20199;-82
2022/08/22 06:11:58;;;;;;;8.47;6.13;;;;;;;;;;5081854;28;20233;-82
2022/08/22 06:14:29;;;;;;;10.37;6.40;;;;;;;;;;5084348;28;20201;-82
2022/08/22 06:17:00;;;;;;;9.13;6.63;;;;;;;;;;5083712;28;20692;-82
2022/08/22 06:19:28;;;;;;;8.57;7.77;;;;;;;;;;5084936;28;20209;-81
2022/08/22 06:21:56;;;;;;;7.97;6.03;;;;;;;;;;5082539;28;20232;-82
2022/08/22 06:24:25;;;;;;;8.80;6.37;;;;;;;;;;5082416;28;20237;-81
2022/08/22 06:26:54;;;;;;;10.97;6.63;;;;;;;;;;5077191;28;20537;-81
2022/08/22 06:29:29;;;;;;;6.97;6.13;;;;;;;;;;5081640;28;20678;-82
2022/08/22 06:31:57;;;;;;;8.10;5.80;;;;;;;;;;5082131;28;20229;-82
2022/08/22 06:34:26;;;;;;;8.03;6.10;;;;;;;;;;5082320;28;20728;-82
2022/08/22 06:36:57;;;;;;;9.27;5.80;;;;;;;;;;5082162;28;20213;-81
2022/08/22 06:39:26;;;;;;;6.73;5.30;;;;;;;;;;5081757;28;20608;-82
2022/08/22 06:41:55;;;;;;;7.00;5.90;;;;;;;;;;5081108;28;20233;-81
2022/08/22 06:44:24;;;;;;;6.60;5.60;;;;;;;;;;5082212;28;20209;-81
2022/08/22 06:46:54;;;;;;;7.40;5.87;;;;;;;;;;5081901;28;20229;-81
2022/08/22 06:49:22;;;;;;;6.10;5.50;;;;;;;;;;5082296;28;20224;-83
2022/08/22 06:51:50;;;;;;;8.60;5.50;;;;;;;;;;5081147;28;20233;-82
2022/08/22 06:54:20;;;;;;;6.77;5.63;;;;;;;;;;5081843;28;20673;-82
2022/08/22 06:56:49;;;;;;;5.90;5.30;;;;;;;;;;5081048;28;20241;-81
2022/08/22 06:59:17;;;;;;;6.93;5.00;;;;;;;;;;5076415;28;20226;-81
2022/08/22 07:01:48;;;;;;;7.27;5.00;;;;;;;;;;5079249;28;20237;-82
2022/08/22 07:04:15;;;;;;;9.10;4.90;;;;;;;;;;5072042;28;20216;-81
2022/08/22 07:06:44;;;;;;;5.35;4.82;;;;;;;;;;5078203;28;20228;-81
2022/08/22 07:09:19;;;;;;;5.35;4.82;;;;;;;;;;5078555;28;20229;-82
2022/08/22 07:11:47;;;;;;;5.47;4.57;;;;;;;;;;5079246;28;20236;-82
2022/08/22 07:14:16;;;;;;;5.30;3.97;;;;;;;;;;5080107;28;20205;-82
2022/08/22 07:16:46;;;;;;;4.45;4.05;;;;;;;;;;5079709;28;20241;-81
2022/08/22 07:19:23;;;;;;;4.50;3.72;;;;;;;;;;5079817;28;20189;-81
2022/08/22 07:21:50;;;;;;;5.28;4.22;;;;;;;;;;5077838;28;20237;-82
2022/08/22 07:24:20;;;;;;;4.95;4.00;;;;;;;;;;5078122;28;20247;-83
2022/08/22 07:26:56;;;;;;;4.38;3.85;;;;;;;;;;5077236;28;20614;-81
2022/08/22 07:29:28;;;;;;;4.35;3.83;;;;;;;;;;5079700;28;20239;-82
2022/08/22 07:32:03;;;;;;;5.20;3.50;;;;;;;;;;5078662;28;20237;-81
2022/08/22 07:34:37;;;;;;;5.47;3.72;;;;;;;;;;5059239;28;20224;-82
2022/08/22 07:37:07;;;;;;;5.68;3.67;;;;;;;;;;5058900;28;20244;-83
2022/08/22 07:39:37;;;;;;;5.50;3.35;;;;;;;;;;5065144;28;20661;-81
2022/08/22 07:42:11;;;;;;;4.55;3.30;;;;;;;;;;5078473;28;20222;-82
2022/08/22 07:44:46;;;;;;;4.47;3.60;;;;;;;;;;5078233;28;20867;-81
2022/08/22 07:47:16;;;;;;;6.50;3.60;;;;;;;;;;5076980;28;20193;-82
2022/08/22 07:49:47;;;;;;;9.18;4.18;;;;;;;;;;5072802;28;20213;-81
2022/08/22 07:52:15;;;;;;;3.40;3.10;;;;;;;;;;5066741;28;20225;-82
2022/08/22 07:54:46;;;;;;;4.72;3.30;;;;;;;;;;5079637;28;20209;-81
2022/08/22 07:57:16;;;;;;;3.17;2.95;;;;;;;;;;5079975;28;20217;-83
2022/08/22 07:59:47;;;;;;;5.78;3.05;;;;;;;;;;5079854;28;20201;-83
2022/08/22 08:02:16;;;;;;;6.85;3.45;;;;;;;;;;5080062;28;20247;-83
2022/08/22 08:04:44;;;;;;;7.57;3.05;;;;;;;;;;5072685;28;20689;-83
2022/08/22 08:07:14;;;;;;;5.45;3.00;;;;;;;;;;5072778;28;20209;-83
2022/08/22 08:09:43;;;;;;;7.10;3.15;;;;;;;;;;5075081;28;20221;-83
2022/08/22 08:12:11;;;;;;;3.53;3.22;;;;;;;;;;5078925;28;20221;-82
2022/08/22 08:14:40;;;;;;;3.60;3.20;;;;;;;;;;5075505;28;20678;-84
2022/08/22 08:17:09;;;;;;;3.38;3.05;;;;;;;;;;5061102;28;20205;-84
2022/08/22 08:19:39;;;;;;;9.63;4.72;;;;;;;;;;5076508;28;20673;-83
2022/08/22 08:22:07;;;;;;;3.28;2.92;;;;;;;;;;5075591;28;20229;-84
2022/08/22 08:24:37;;;;;;;3.75;2.97;;;;;;;;;;5075363;28;20205;-84
2022/08/22 08:29:55;;;;;;;4.65;3.08;;;;;;;;;;5075724;28;20272;-84
2022/08/22 08:32:24;;;;;;;3.38;2.75;;;;;;;;;;5075242;28;20707;-83
2022/08/22 08:34:51;;;;;;;5.00;2.97;;;;;;;;;;5076133;28;20229;-84
2022/08/22 08:37:22;;;;;;;2.88;2.67;;;;;;;;;;5074492;28;20205;-84
2022/08/22 08:39:50;;;;;;;4.63;3.00;;;;;;;;;;5075689;28;20236;-84
2022/08/22 08:43:25;;;;;;;2.90;2.70;;;;;;;;;;5075862;28;20658;-83
2022/08/22 08:45:41;;;;;;;3.80;2.70;;;;;;;;;;5073250;28;20614;-84
2022/08/22 08:48:23;;;;;;;4.00;2.97;;;;;;;;;;5074213;28;20707;-84
2022/08/22 08:50:58;;;;;;;3.17;2.85;;;;;;;;;;5079785;28;20286;-84
2022/08/22 08:53:43;;;;;;;4.10;2.95;;;;;;;;;;5073593;28;20200;-83
2022/08/22 08:56:16;;;;;;;6.40;2.78;;;;;;;;;;5074989;28;20607;-84
2022/08/22 08:58:51;;;;;;;3.10;2.60;;;;;;;;;;5075508;28;20201;-83
2022/08/22 09:01:32;;;;;;;3.05;2.58;;;;;;;;;;5073759;28;20248;-84
2022/08/22 09:04:21;;;;;;;3.00;2.60;;;;;;;;;;5075211;28;20189;-84
2022/08/22 09:06:58;;;;;;;2.95;2.75;;;;;;;;;;5073327;28;20233;-84
2022/08/22 09:09:30;;;;;;;2.72;2.50;;;;;;;;;;5073732;28;20264;-84
2022/08/22 09:12:11;;;;;;;2.75;2.55;;;;;;;;;;5072796;28;20221;-84
2022/08/22 09:14:56;;;;;;;3.13;2.55;;;;;;;;;;5072571;28;20201;-84
2022/08/22 09:17:40;;;;;;;3.00;2.50;;;;;;;;;;5064320;28;20201;-84
2022/08/22 09:20:19;;;;;;;3.95;2.67;;;;;;;;;;5072950;28;20236;-83
2022/08/22 09:23:07;;;;;;;5.43;2.60;;;;;;;;;;5085911;22;20245;-89
2022/08/22 09:25:36;;;;;;;2.92;2.70;;;;;;;;;;5044173;28;20240;-89
2022/08/22 09:28:11;;;;;;;2.83;2.47;;;;;;;;;;5051564;28;20214;-89
2022/08/22 09:30:47;;;;;;;5.05;2.80;;;;;;;;;;5053728;28;20696;-89
2022/08/22 09:33:18;;;;;;;3.90;2.15;;;;;;;;;;5065470;28;20225;-88
2022/08/22 09:35:51;;;;;;;3.88;2.45;;;;;;;;;;5074714;28;20233;-89
2022/08/22 09:38:26;;;;;;;3.30;2.40;;;;;;;;;;5075219;28;20198;-89
2022/08/22 09:40:59;;;;;;;4.13;2.60;;;;;;;;;;5074465;28;20228;-89
2022/08/22 09:43:33;;;;;;;4.40;2.38;;;;;;;;;;5075015;28;20229;-88
2022/08/22 09:46:05;;;;;;;2.55;2.35;;;;;;;;;;5060230;28;20238;-88
2022/08/22 09:48:57;;;;;;;2.50;2.30;;;;;;;;;;5054576;28;20682;-89
2022/08/22 09:51:33;;;;;;;2.78;2.58;;;;;;;;;;5054292;28;20244;-89
2022/08/22 09:54:16;;;;;;;3.45;2.20;;;;;;;;;;5049032;28;20226;-90
2022/08/22 09:56:48;;;;;;;4.32;2.75;;;;;;;;;;5035112;28;20234;-89
2022/08/22 09:59:21;;;;;;;3.50;2.38;;;;;;;;;;5035233;28;20199;-89
2022/08/22 10:01:54;;;;;;;4.55;2.10;;;;;;;;;;5041160;28;20229;-87
2022/08/22 10:04:43;;;;;;;2.50;2.30;;;;;;;;;;5055448;28;20213;-89
2022/08/22 10:07:18;;;;;;;3.05;2.30;;;;;;;;;;5070776;28;20221;-90
2022/08/22 10:09:51;;;;;;;4.30;2.38;;;;;;;;;;5056355;28;20218;-89
2022/08/22 10:12:22;;;;;;;3.70;2.42;;;;;;;;;;5055828;28;20232;-89
2022/08/22 10:14:59;;;;;;;5.32;2.45;;;;;;;;;;5055938;28;20229;-88
2022/08/22 10:17:29;;;;;;;6.40;2.50;;;;;;;;;;5054867;28;20213;-89
2022/08/22 10:20:00;;;;;;;3.17;2.10;;;;;;;;;;5054533;28;20229;-89
2022/08/22 10:22:32;;;;;;;7.03;2.53;;;;;;;;;;5054060;28;20772;-88
2022/08/22 10:25:07;;;;;;;5.13;2.40;;;;;;;;;;5054418;28;20574;-88
2022/08/22 10:27:42;;;;;;;2.70;2.40;;;;;;;;;;5054580;28;20178;-89
2022/08/22 10:30:11;;;;;;;4.70;2.42;;;;;;;;;;5053859;28;20247;-90
2022/08/22 10:32:41;;;;;;;4.20;2.10;;;;;;;;;;5053952;28;20280;-90
2022/08/22 10:35:16;;;;;;;2.88;1.85;;;;;;;;;;5053891;28;20605;-90
2022/08/22 10:37:49;;;;;;;4.40;2.20;;;;;;;;;;5054714;28;20288;-90
2022/08/22 10:40:21;;;;;;;3.83;2.30;;;;;;;;;;5053533;28;20265;-89
2022/08/22 10:42:51;;;;;;;2.00;1.77;;;;;;;;;;5054075;28;20230;-91
2022/08/22 10:45:20;;;;;;;3.60;1.67;;;;;;;;;;5053597;28;20729;-89
2022/08/22 10:48:02;;;;;;;2.70;1.77;;;;;;;;;;5068313;28;20691;-89
2022/08/22 10:50:33;;;;;;;3.58;2.10;;;;;;;;;;5033678;28;20244;-91
2022/08/22 10:55:46;;;;;;;2.67;1.77;;;;;;;;;;5075842;28;20228;-90
2022/08/22 10:58:16;;;;;;;2.25;1.80;;;;;;;;;;5064072;28;21586;-90
2022/08/22 11:00:47;;;;;;;1.73;1.52;;;;;;;;;;5073339;28;20591;-90
2022/08/22 11:03:16;;;;;;;2.17;1.45;;;;;;;;;;5055291;28;20225;-89
2022/08/22 11:05:45;;;;;;;1.70;1.15;;;;;;;;;;5065856;28;20221;-90
2022/08/22 11:08:36;;;;;;;2.97;1.63;;;;;;;;;;5054499;28;20197;-89
2022/08/22 11:11:08;;;;;;;2.65;1.70;;;;;;;;;;5053132;28;20664;-89
2022/08/22 11:13:40;;;;;;;3.28;2.15;;;;;;;;;;5054806;28;20249;-90
2022/08/22 11:16:13;;;;;;;1.33;1.23;;;;;;;;;;5054905;28;20720;-90
2022/08/22 11:18:55;;;;;;;1.67;1.30;;;;;;;;;;5054744;28;20196;-90
2022/08/22 11:21:26;;;;;;;2.60;1.40;;;;;;;;;;5060452;28;20225;-90
2022/08/22 11:23:58;;;;;;;4.25;1.80;;;;;;;;;;5071258;28;20245;-90
2022/08/22 11:26:31;;;;;;;2.45;1.58;;;;;;;;;;5055169;28;20447;-91
2022/08/22 11:29:04;;;;;;;2.85;1.60;;;;;;;;;;5052912;28;20209;-87
2022/08/22 11:31:36;;;;;;;2.78;1.70;;;;;;;;;;5052700;28;20233;-91
2022/08/22 11:34:08;;;;;;;2.05;1.55;;;;;;;;;;5053809;28;20232;-91
2022/08/22 11:36:39;;;;;;;3.00;1.73;;;;;;;;;;5052790;28;20248;-90
2022/08/22 11:39:16;;;;;;;2.58;1.70;;;;;;;;;;5053280;28;20189;-90
2022/08/22 11:41:45;;;;;;;2.08;1.60;;;;;;;;;;5052102;28;20229;-90
2022/08/22 11:44:16;;;;;;;2.20;1.50;;;;;;;;;;5053076;28;20213;-90
2022/08/22 11:46:45;;;;;;;2.65;1.55;;;;;;;;;;5053382;28;20244;-90
2022/08/22 11:49:31;;;;;;;2.63;1.73;;;;;;;;;;5073102;28;20228;-89
2022/08/22 11:52:03;;;;;;;2.58;1.52;;;;;;;;;;5071771;28;20254;-90
2022/08/22 11:54:35;;;;;;;3.50;1.55;;;;;;;;;;5072431;28;20209;-91
2022/08/22 11:57:05;;;;;;;2.17;1.63;;;;;;;;;;5072564;28;20193;-90
2022/08/22 11:59:39;;;;;;;2.60;1.63;;;;;;;;;;5055991;28;20817;-91
2022/08/22 12:02:11;;;;;;;3.47;1.83;;;;;;;;;;5041660;28;20267;-89
2022/08/22 12:04:41;;;;;;;2.03;1.50;;;;;;;;;;5052156;28;20574;-90
2022/08/22 12:07:13;;;;;;;2.13;1.30;;;;;;;;;;5052568;28;20631;-90
2022/08/22 12:09:43;;;;;;;3.03;1.48;;;;;;;;;;5051750;28;20221;-91
2022/08/22 12:12:25;;;;;;;2.15;1.60;;;;;;;;;;5051709;28;20230;-90
2022/08/22 12:14:56;;;;;;;1.40;1.30;;;;;;;;;;5049713;28;20237;-90
2022/08/22 12:17:46;;;;;;;3.17;1.30;;;;;;;;;;5052794;28;20193;-90
2022/08/22 12:20:19;;;;;;;4.75;1.60;;;;;;;;;;5034241;28;20240;-90
2022/08/22 12:22:59;;;;;;;1.83;1.48;;;;;;;;;;5052075;28;20237;-90
2022/08/22 12:25:42;;;;;;;4.25;1.52;;;;;;;;;;5051767;28;20280;-90
2022/08/22 12:28:15;;;;;;;2.38;1.83;;;;;;;;;;5052707;28;20217;-90
2022/08/22 12:30:46;;;;;;;3.38;1.48;;;;;;;;;;5051917;28;20248;-90
2022/08/22 12:33:25;;;;;;;1.50;1.40;;;;;;;;;;5052508;28;20225;-90
2022/08/22 12:35:58;;;;;;;3.75;1.73;;;;;;;;;;5052449;28;20248;-89
2022/08/22 12:38:37;;;;;;;4.22;1.60;;;;;;;;;;5049360;28;20574;-89
2022/08/22 12:41:12;;;;;;;2.50;1.45;;;;;;;;;;5071822;28;20236;-90
2022/08/22 12:43:48;;;;;;;2.55;1.60;;;;;;;;;;5072145;28;20235;-90
2022/08/22 12:46:17;;;;;;;1.50;1.40;;;;;;;;;;5072426;28;20742;-91
2022/08/22 12:49:02;;;;;;;1.85;1.75;;;;;;;;;;5072411;28;20232;-92
2022/08/22 12:51:31;;;;;;;2.58;1.40;;;;;;;;;;5071678;28;20234;-90
2022/08/22 12:54:07;;;;;;;2.65;1.63;;;;;;;;;;5072271;28;20228;-91
2022/08/22 12:56:39;;;;;;;1.42;1.33;;;;;;;;;;5071612;28;20318;-91
2022/08/22 12:59:21;;;;;;;3.97;1.25;;;;;;;;;;5071874;28;20684;-91
2022/08/22 13:01:50;;;;;;;3.13;1.80;;;;;;;;;;5064692;28;20279;-90
2022/08/22 13:04:19;;;;;;;2.80;1.80;;;;;;;;;;5056186;28;20209;-88
2022/08/22 13:06:49;;;;;;;2.65;1.40;;;;;;;;;;5055980;28;20233;-91
2022/08/22 13:09:19;;;;;;;1.40;1.30;;;;;;;;;;5056171;28;20216;-91
2022/08/22 13:11:48;;;;;;;2.20;1.42;;;;;;;;;;5055218;28;20306;-92
2022/08/22 13:14:20;;;;;;;2.28;1.50;;;;;;;;;;5055879;28;20213;-91
2022/08/22 13:16:49;;;;;;;3.33;1.38;;;;;;;;;;5055413;28;20252;-91
2022/08/22 13:19:18;;;;;;;1.55;1.30;;;;;;;;;;5056584;28;20205;-91
2022/08/22 13:21:46;;;;;;;1.70;1.60;;;;;;;;;;5071154;28;20239;-91
2022/08/22 13:24:16;;;;;;;1.70;1.60;;;;;;;;;;5058639;28;20228;-91
2022/08/22 13:26:51;;;;;;;2.67;1.58;;;;;;;;;;5058442;28;20243;-89
2022/08/22 13:29:20;;;;;;;4.25;1.77;;;;;;;;;;5058281;28;20186;-91
2022/08/22 13:31:51;;;;;;;1.92;1.50;;;;;;;;;;5057053;28;20666;-91
2022/08/22 13:34:27;;;;;;;2.65;1.60;;;;;;;;;;5056418;28;20220;-91
2022/08/22 13:36:56;;;;;;;3.42;1.60;;;;;;;;;;5056268;28;20228;-91
2022/08/22 13:39:26;;;;;;;2.85;1.92;;;;;;;;;;5055967;28;20566;-90
2022/08/22 13:41:56;;;;;;;2.97;1.40;;;;;;;;;;5056129;28;20229;-90
2022/08/22 13:44:25;;;;;;;1.85;1.50;;;;;;;;;;5055330;28;20206;-91
2022/08/22 13:46:54;;;;;;;1.58;1.48;;;;;;;;;;5055377;28;20571;-90
2022/08/22 13:49:31;;;;;;;2.03;1.65;;;;;;;;;;5054857;28;20228;-91
2022/08/22 13:52:04;;;;;;;1.80;1.50;;;;;;;;;;5055291;28;20228;-91
2022/08/22 13:54:41;;;;;;;2.38;1.40;;;;;;;;;;5054857;28;20201;-91
2022/08/22 13:57:20;;;;;;;1.67;1.58;;;;;;;;;;5058821;28;20189;-92
2022/08/22 13:59:51;;;;;;;2.17;1.90;;;;;;;;;;5056568;28;20261;-93
2022/08/22 14:02:28;;;;;;;2.63;1.63;;;;;;;;;;5055602;28;20236;-92
2022/08/22 14:04:59;;;;;;;1.77;1.48;;;;;;;;;;5055641;28;20232;-93
2022/08/22 14:07:31;;;;;;;2.45;1.42;;;;;;;;;;5055699;28;20224;-92
2022/08/22 14:10:00;;;;;;;2.85;1.60;;;;;;;;;;5054617;28;20716;-90
2022/08/22 14:12:32;;;;;;;3.90;1.80;;;;;;;;;;5055384;28;20423;-93
2022/08/22 14:15:00;;;;;;;2.78;1.65;;;;;;;;;;5061505;28;20233;-92
2022/08/22 14:17:30;;;;;;;2.28;1.42;;;;;;;;;;5058396;28;20255;-89
2022/08/22 14:20:00;;;;;;;2.75;1.40;;;;;;;;;;5036354;28;20233;-90
2022/08/22 14:22:30;;;;;;;2.53;1.52;;;;;;;;;;5044336;28;20571;-91
2022/08/22 14:24:58;;;;;;;2.10;1.58;;;;;;;;;;5054573;28;20236;-92
2022/08/22 14:27:34;;;;;;;2.15;1.85;;;;;;;;;;5046854;28;20210;-92
2022/08/22 14:30:02;;;;;;;5.13;1.70;;;;;;;;;;5034123;28;20681;-92
2022/08/22 14:32:34;;;;;;;3.58;1.75;;;;;;;;;;5040301;28;20701;-91
2022/08/22 14:37:58;;;;;;;1.60;1.50;;;;;;;;;;5044878;28;20205;-92
2022/08/22 14:40:27;;;;;;;2.63;1.25;;;;;;;;;;5054428;28;20628;-92
2022/08/22 14:42:56;;;;;;;7.38;1.77;;;;;;;;;;5055037;28;20240;-92
2022/08/22 14:45:25;;;;;;;3.05;1.55;;;;;;;;;;5069831;28;20258;-91
2022/08/22 14:47:54;;;;;;;1.60;1.50;;;;;;;;;;5072644;28;20256;-89
2022/08/22 14:50:36;;;;;;;1.92;1.25;;;;;;;;;;5057186;28;20226;-91
2022/08/22 14:53:05;;;;;;;2.30;1.40;;;;;;;;;;5054308;28;20252;-91
2022/08/22 14:55:33;;;;;;;2.45;1.60;;;;;;;;;;5055719;28;20229;-92
2022/08/22 14:58:03;;;;;;;3.47;1.38;;;;;;;;;;5057173;28;20194;-91
2022/08/22 15:00:33;;;;;;;3.42;1.42;;;;;;;;;;5050078;28;20313;-91
2022/08/22 15:03:10;;;;;;;2.25;1.70;;;;;;;;;;5056769;28;20214;-93
2022/08/22 15:05:43;;;;;;;1.35;1.25;;;;;;;;;;5075263;28;20231;-91
2022/08/22 15:08:20;;;;;;;3.13;1.60;;;;;;;;;;5042729;28;20230;-92
2022/08/22 15:10:48;;;;;;;2.60;1.58;;;;;;;;;;5035208;28;20665;-91
2022/08/22 15:13:22;;;;;;;1.92;1.65;;;;;;;;;;5036739;28;20572;-91
2022/08/22 15:15:51;;;;;;;3.83;1.38;;;;;;;;;;5052827;28;20585;-92
2022/08/22 15:18:20;;;;;;;2.63;1.52;;;;;;;;;;5033918;28;20229;-92
2022/08/22 15:21:01;;;;;;;3.22;1.50;;;;;;;;;;5034677;28;20226;-91
2022/08/22 15:23:28;;;;;;;2.17;1.58;;;;;;;;;;5071248;23;20660;-86
2022/08/22 15:25:57;;;;;;;3.17;1.40;;;;;;;;;;5084197;28;20232;-86
2022/08/22 15:28:26;;;;;;;1.45;1.23;;;;;;;;;;5093816;28;20671;-85